Overview Statistics Trail Chart Weather Telemetry Raw packets
 

This is the latest recevied weather packets stored in our database for station/object OE6PWE-13. If no packets are shown the sender has not sent any weather packets the latest 10 day(s).

<< 13 14 15 16 17 18 19 >>
Time Temp. Humidity Pressure Rain* Wind** Luminosity Snow
1788378311 17.78° C 99% 1020 hPa 0 mm - - -
1788377434 18.33° C 99% 1020 hPa 0 mm - - -
1788376512 18.33° C 99% 1020 hPa 0 mm - - -
1788375611 18.89° C 98% 1020 hPa 0 mm - - -
1788374711 18.89° C 97% 1019 hPa 0 mm - - -
1788373812 19.44° C 95% 1019 hPa 0 mm - - -
1788372911 20° C 94% 1019 hPa 0 mm - - -
1788372012 20.56° C 92% 1019 hPa 0 mm - - -
1788371111 21.11° C 89% 1018 hPa 0 mm - - -
1788370211 22.22° C 86% 1018 hPa 0 mm - - -
1788369328 23.33° C 83% 1018 hPa 0 mm - - -
1788368412 23.89° C 80% 1018 hPa 0 mm - - -
1788367511 23.33° C 82% 1018 hPa 0 mm - - -
1788366611 22.78° C 84% 1018 hPa 0 mm - - -
1788365712 22.22° C 86% 1018 hPa 0 mm - - -
1788364812 22.22° C 86% 1018 hPa 0 mm - - -
1788363911 22.78° C 80% 1018 hPa 0 mm - - -
1788363011 23.33° C 77% 1018 hPa 0 mm - - -
1788362112 24.44° C 71% 1018 hPa 0 mm - - -
1788361212 25° C 69% 1018 hPa 0 mm - - -
1788360311 26.11° C 63% 1018 hPa 0 mm - - -
1788359411 27.78° C 59% 1018 hPa 0 mm - - -
1788358512 27.78° C 57% 1017 hPa 0 mm - - -
1788357611 28.33° C 57% 1017 hPa 0 mm - - -
1788356712 27.78° C 54% 1018 hPa 0 mm - - -

* Rain latest hour (hover to see other rain measurements)
** Current wind speed in m/s (hover to see current wind gust speed)